createdAt,value
2022-10-07T03:55:06.341Z,78.88
2022-10-07T03:58:33.642Z,78.69
2022-10-07T04:02:01.342Z,78.73
2022-10-07T04:05:29.160Z,78.79
2022-10-07T04:08:56.414Z,78.69
2022-10-07T04:12:23.073Z,78.81
2022-10-07T04:15:50.359Z,78.89
2022-10-07T04:19:17.444Z,78.94
2022-10-07T04:22:44.295Z,78.84
2022-10-07T04:26:13.299Z,78.95
2022-10-07T04:29:43.186Z,78.93
2022-10-07T04:33:10.925Z,78.74
2022-10-07T04:36:38.107Z,78.80
2022-10-07T04:40:09.800Z,78.79
2022-10-07T04:43:38.134Z,78.82
2022-10-07T04:47:07.788Z,79.00
2022-10-07T04:50:38.791Z,79.04
2022-10-07T04:54:06.832Z,79.12
2022-10-07T04:57:39.147Z,79.26
2022-10-07T05:01:11.493Z,79.31
2022-10-07T05:04:39.771Z,79.41
2022-10-07T05:08:07.578Z,79.37
2022-10-07T05:11:35.184Z,79.56
2022-10-07T05:15:09.158Z,79.55
2022-10-07T05:18:39.575Z,79.59
2022-10-07T05:22:09.304Z,79.67
2022-10-07T05:25:36.450Z,79.80
2022-10-07T05:29:03.988Z,79.97
2022-10-07T05:32:36.878Z,79.83
2022-10-07T05:36:04.719Z,80.10
2022-10-07T05:39:33.608Z,80.13
2022-10-07T05:43:10.845Z,80.28
2022-10-07T05:46:38.108Z,80.62
2022-10-07T05:50:05.857Z,80.65
2022-10-07T05:53:33.795Z,80.66
2022-10-07T05:57:03.132Z,80.97
2022-10-07T06:00:30.104Z,80.30
2022-10-07T06:03:58.212Z,80.26
2022-10-07T06:07:29.425Z,80.51
2022-10-07T06:11:32.248Z,80.11
2022-10-07T06:15:00.505Z,79.37
2022-10-07T06:18:27.733Z,79.07
2022-10-07T06:21:54.602Z,78.60
2022-10-07T06:25:21.379Z,78.13
2022-10-07T06:28:49.035Z,77.87
2022-10-07T06:32:16.268Z,76.97
2022-10-07T06:35:43.703Z,76.83
2022-10-07T06:39:11.802Z,76.34
2022-10-07T06:42:39.674Z,75.54
2022-10-07T06:46:29.533Z,74.40
2022-10-07T06:49:57.228Z,73.93
2022-10-07T06:53:23.988Z,73.61
2022-10-07T06:56:50.849Z,73.36
2022-10-07T07:00:18.779Z,72.79
2022-10-07T07:03:46.146Z,72.25
2022-10-07T07:07:13.593Z,71.60
2022-10-07T07:10:42.692Z,71.13
2022-10-07T07:14:11.498Z,70.56
2022-10-07T07:17:39.221Z,69.86
2022-10-07T07:21:07.808Z,68.95
2022-10-07T07:24:35.353Z,69.14
2022-10-07T07:28:03.706Z,69.03
2022-10-07T07:31:34.129Z,68.39
2022-10-07T07:35:02.259Z,68.09
2022-10-07T07:38:29.809Z,68.08
2022-10-07T07:41:57.773Z,67.91
2022-10-07T07:45:25.514Z,67.37
2022-10-07T07:48:53.720Z,67.12
2022-10-07T07:52:20.997Z,66.82
2022-10-07T07:55:56.991Z,66.47
2022-10-07T07:59:25.322Z,66.41
2022-10-07T08:02:53.911Z,66.30
2022-10-07T08:06:22.917Z,66.34
2022-10-07T08:09:49.867Z,66.21
2022-10-07T08:13:16.702Z,66.23
2022-10-07T08:16:45.089Z,66.19
2022-10-07T08:20:14.632Z,66.00
2022-10-07T08:23:42.008Z,65.64
2022-10-07T08:27:09.032Z,65.46
2022-10-07T08:30:36.050Z,65.04
2022-10-07T08:34:06.526Z,64.99
2022-10-07T08:37:33.450Z,65.23
2022-10-07T08:41:11.274Z,64.64
2022-10-07T08:44:41.916Z,64.44
2022-10-07T08:48:17.069Z,64.62
2022-10-07T08:51:48.954Z,64.35
2022-10-07T08:55:25.299Z,64.00
2022-10-07T08:59:04.669Z,63.14
2022-10-07T09:02:40.098Z,62.89
2022-10-07T09:06:14.932Z,62.68
2022-10-07T09:09:45.623Z,62.13
2022-10-07T09:13:17.167Z,61.88
2022-10-07T09:17:01.754Z,61.61
2022-10-07T09:20:35.199Z,61.81
2022-10-07T09:24:15.292Z,60.98
2022-10-07T09:27:42.655Z,60.89
2022-10-07T09:31:13.683Z,60.15
2022-10-07T09:34:41.352Z,59.88
2022-10-07T09:38:09.501Z,60.18
2022-10-07T09:41:38.998Z,59.90
2022-10-07T09:45:20.931Z,59.19
2022-10-07T09:48:54.449Z,59.35
2022-10-07T09:52:25.070Z,58.93
2022-10-07T09:55:53.352Z,58.55
2022-10-07T09:59:25.419Z,57.82
2022-10-07T10:02:55.694Z,57.29
2022-10-07T10:06:24.431Z,57.36
2022-10-07T10:09:54.154Z,57.03
2022-10-07T10:13:30.952Z,57.04
2022-10-07T10:16:57.800Z,56.92
2022-10-07T10:20:36.043Z,56.42
2022-10-07T10:24:06.195Z,56.10
2022-10-07T10:27:38.952Z,55.02
2022-10-07T10:31:19.116Z,55.10
2022-10-07T10:34:56.009Z,54.77
2022-10-07T10:38:34.073Z,53.25
2022-10-07T10:42:06.387Z,52.82
2022-10-07T10:45:41.913Z,51.70
2022-10-07T10:49:20.082Z,50.92
2022-10-07T10:52:58.993Z,51.26
2022-10-07T10:56:35.534Z,50.91
2022-10-07T11:00:09.303Z,51.11
2022-10-07T11:04:01.705Z,50.56
2022-10-07T11:07:34.423Z,50.29
2022-10-07T11:11:06.533Z,50.30
2022-10-07T11:14:47.375Z,50.45
2022-10-07T11:18:22.006Z,50.52
2022-10-07T11:21:51.538Z,50.15
2022-10-07T11:25:28.790Z,50.82
2022-10-07T11:29:13.976Z,50.11
2022-10-07T11:32:48.581Z,50.48
2022-10-07T11:36:21.335Z,51.09
2022-10-07T11:39:48.740Z,50.89
2022-10-07T11:43:19.988Z,50.40
2022-10-07T11:46:48.727Z,50.24
2022-10-07T11:50:20.738Z,50.56
2022-10-07T11:53:47.743Z,50.63
2022-10-07T11:57:23.649Z,50.70
2022-10-07T12:00:50.860Z,49.76
2022-10-07T12:04:38.314Z,48.91
2022-10-07T12:08:27.437Z,49.20
2022-10-07T12:11:59.017Z,49.26
2022-10-07T12:15:39.081Z,48.44
2022-10-07T12:19:24.012Z,49.21
2022-10-07T12:23:39.859Z,49.40
2022-10-07T12:27:18.374Z,49.58
2022-10-07T12:30:53.334Z,49.27
2022-10-07T12:34:35.529Z,49.11
2022-10-07T12:38:14.231Z,48.18
2022-10-07T12:41:47.532Z,48.42
2022-10-07T12:45:19.510Z,48.83
2022-10-07T12:48:51.481Z,48.42
2022-10-07T12:52:23.841Z,47.89
2022-10-07T12:55:54.303Z,47.39
2022-10-07T12:59:50.987Z,47.25
2022-10-07T13:03:55.325Z,46.59
2022-10-07T13:07:52.775Z,46.69
2022-10-07T13:11:48.008Z,46.54
2022-10-07T13:15:27.949Z,46.95
2022-10-07T13:19:01.525Z,47.31
2022-10-07T13:22:30.901Z,47.66
2022-10-07T13:26:00.315Z,47.96
2022-10-07T13:29:26.895Z,47.79
2022-10-07T13:32:53.709Z,47.43
2022-10-07T13:36:24.190Z,47.71
2022-10-07T13:39:50.828Z,48.04
2022-10-07T13:43:17.633Z,47.33
2022-10-07T13:46:55.122Z,47.20
2022-10-07T13:50:26.331Z,47.83
2022-10-07T13:53:58.222Z,47.83
2022-10-07T13:57:26.070Z,47.72
2022-10-07T14:00:53.684Z,47.63
2022-10-07T14:04:26.310Z,47.05
2022-10-07T14:07:56.563Z,46.43
2022-10-07T14:11:24.654Z,46.63
2022-10-07T14:14:54.451Z,46.56
2022-10-07T14:18:21.102Z,46.67
2022-10-07T14:21:47.841Z,47.03
2022-10-07T14:25:21.457Z,47.18
2022-10-07T14:28:48.246Z,47.30
2022-10-07T14:32:39.390Z,47.34
2022-10-07T14:36:16.128Z,47.53
2022-10-07T14:39:44.786Z,47.93
2022-10-07T14:43:12.027Z,47.78
2022-10-07T14:46:39.740Z,47.85
2022-10-07T14:50:07.732Z,48.09
2022-10-07T14:53:35.588Z,48.09
2022-10-07T14:57:02.356Z,48.11
2022-10-07T15:00:35.991Z,48.55
2022-10-07T15:04:07.186Z,48.69
2022-10-07T15:07:34.032Z,48.62
2022-10-07T15:11:00.706Z,48.84
2022-10-07T15:14:27.305Z,48.91
2022-10-07T15:17:54.196Z,48.92
2022-10-07T15:21:21.206Z,48.89
2022-10-07T15:24:48.045Z,49.13
2022-10-07T15:28:17.677Z,49.26
2022-10-07T15:31:45.141Z,49.49
2022-10-07T15:35:12.805Z,49.62
2022-10-07T15:38:40.651Z,49.85
2022-10-07T15:42:09.914Z,50.13
2022-10-07T15:45:36.407Z,50.34
2022-10-07T15:49:03.786Z,50.52
2022-10-07T15:52:30.463Z,50.69
2022-10-07T15:55:58.631Z,50.97
2022-10-07T15:59:25.419Z,51.16
2022-10-07T16:09:49.068Z,51.94
2022-10-07T16:13:16.045Z,52.19
2022-10-07T16:16:43.124Z,52.38
2022-10-07T16:20:11.645Z,52.72
2022-10-07T16:23:40.312Z,52.92
2022-10-07T16:27:06.913Z,53.18
2022-10-07T16:30:43.325Z,53.57
2022-10-07T16:34:11.602Z,53.79
2022-10-07T16:37:38.371Z,54.01
2022-10-07T16:41:04.872Z,54.39
2022-10-07T16:44:31.684Z,54.58
2022-10-07T16:47:58.846Z,54.80
2022-10-07T16:51:27.634Z,55.16
2022-10-07T16:54:54.283Z,55.55
2022-10-07T16:58:20.871Z,55.73
2022-10-07T17:01:48.208Z,56.00
2022-10-07T17:05:15.061Z,56.33
2022-10-07T17:08:46.181Z,56.59
2022-10-07T17:12:16.306Z,56.96
2022-10-07T17:15:43.086Z,57.25
2022-10-07T17:19:12.055Z,57.54
2022-10-07T17:22:38.699Z,57.78
2022-10-07T17:26:08.717Z,58.09
2022-10-07T17:29:36.120Z,58.40
2022-10-07T17:33:03.444Z,58.63
2022-10-07T17:36:31.413Z,58.80
2022-10-07T17:39:58.073Z,59.26
2022-10-07T17:43:25.307Z,59.41
2022-10-07T17:46:52.325Z,59.62
2022-10-07T17:50:19.288Z,59.93
2022-10-07T17:53:46.749Z,60.06
2022-10-07T17:57:13.480Z,60.19
2022-10-07T18:00:40.094Z,60.41
2022-10-07T18:04:08.702Z,60.57
2022-10-07T18:07:36.723Z,61.01
2022-10-07T18:11:04.573Z,61.05
2022-10-07T18:14:53.432Z,61.18
2022-10-07T18:18:22.174Z,61.47
2022-10-07T18:21:48.955Z,61.72
2022-10-07T18:25:15.765Z,61.87
2022-10-07T18:28:43.120Z,62.16
2022-10-07T18:32:11.205Z,62.41
2022-10-07T18:35:37.957Z,62.54
2022-10-07T18:39:08.090Z,62.78
2022-10-07T18:42:36.637Z,63.08
2022-10-07T18:46:08.832Z,63.21
2022-10-07T18:49:36.353Z,63.40
2022-10-07T18:53:03.479Z,63.64
2022-10-07T18:56:30.234Z,63.78
2022-10-07T18:59:57.381Z,64.04
2022-10-07T19:03:24.252Z,64.25
2022-10-07T19:06:51.066Z,64.28
2022-10-07T19:10:17.736Z,64.69
2022-10-07T19:13:52.032Z,64.91
2022-10-07T19:17:19.128Z,65.20
2022-10-07T19:20:54.939Z,65.35
2022-10-07T19:24:42.479Z,65.63
2022-10-07T19:28:09.482Z,65.70
2022-10-07T19:31:40.197Z,66.09
2022-10-07T19:35:09.020Z,66.24
2022-10-07T19:38:36.018Z,66.26
2022-10-07T19:42:03.298Z,66.40
2022-10-07T19:45:30.283Z,66.80
2022-10-07T19:48:59.626Z,66.88
2022-10-07T19:52:27.553Z,67.00
2022-10-07T19:55:54.349Z,67.40
2022-10-07T19:59:21.041Z,67.34
2022-10-07T20:02:49.316Z,67.89
2022-10-07T20:06:17.220Z,68.06
2022-10-07T20:19:14.918Z,68.32
2022-10-07T20:22:44.727Z,68.52
2022-10-07T20:26:17.925Z,68.79
2022-10-07T20:29:58.204Z,69.09
2022-10-07T20:33:25.052Z,69.16
2022-10-07T20:36:51.906Z,69.36
2022-10-07T20:40:36.357Z,69.54
2022-10-07T20:44:03.115Z,69.64
2022-10-07T20:47:32.762Z,69.70
2022-10-07T20:51:04.671Z,69.93
2022-10-07T20:54:33.297Z,70.22
2022-10-07T20:58:00.531Z,70.06
2022-10-07T21:01:27.519Z,70.11
2022-10-07T21:04:54.214Z,70.34
2022-10-07T21:08:21.124Z,70.37
2022-10-07T21:11:48.880Z,70.61
2022-10-07T21:15:15.967Z,70.65
2022-10-07T21:18:43.148Z,70.77
2022-10-07T21:22:10.506Z,70.81
2022-10-07T21:25:37.226Z,71.08
2022-10-07T21:29:07.108Z,71.35
2022-10-07T21:32:34.317Z,71.50
2022-10-07T21:36:04.173Z,71.43
2022-10-07T21:39:35.565Z,71.24
2022-10-07T21:43:03.299Z,71.59
2022-10-07T21:46:32.381Z,71.48
2022-10-07T21:49:59.630Z,71.31
2022-10-07T21:53:27.168Z,71.64
2022-10-07T21:56:53.852Z,71.73
2022-10-07T22:00:21.778Z,71.79
2022-10-07T22:03:53.784Z,72.11
2022-10-07T22:07:39.104Z,72.12
2022-10-07T22:11:07.794Z,72.24
2022-10-07T22:14:34.880Z,72.35
2022-10-07T22:18:02.894Z,72.31
2022-10-07T22:21:33.305Z,72.30
2022-10-07T22:25:00.162Z,72.43
2022-10-07T22:28:27.458Z,72.79
2022-10-07T22:31:54.411Z,72.74
2022-10-07T22:35:33.795Z,72.95
2022-10-07T22:48:43.221Z,73.48
